Time;durP1;ratioP1;P1;durP2;ratioP2;P2;SDS_P1;SDS_P2;PMS_P1;PMS_P2;Temp;Humidity;BMP_temperature;BMP_pressure;BME280_temperature;BME280_humidity;BME280_pressure;Samples;Min_cycle;Max_cycle;Signal;HPM_P1;HPM_P2
2022/06/07 00:02:03;;;;;;;1.98;0.80;;;;;;;17.03;85.69;100423.41;6160355;23;20032;-73
2022/06/07 00:04:29;;;;;;;2.15;0.80;;;;;;;16.99;83.71;100411.22;6160101;23;20443;-73
2022/06/07 00:06:54;;;;;;;4.35;0.90;;;;;;;16.98;83.54;100415.19;6160507;23;20060;-73
2022/06/07 00:09:20;;;;;;;4.00;0.90;;;;;;;16.93;83.93;100418.19;6109827;23;20009;-73
2022/06/07 00:11:45;;;;;;;1.55;0.63;;;;;;;16.88;83.28;100416.41;6160425;23;20005;-73
2022/06/07 00:14:11;;;;;;;2.70;0.80;;;;;;;16.85;83.42;100416.25;6134188;23;20037;-73
2022/06/07 00:16:36;;;;;;;3.72;0.90;;;;;;;16.83;84.18;100416.59;6160410;23;20006;-73
2022/06/07 00:19:02;;;;;;;4.15;0.93;;;;;;;16.75;82.94;100414.63;6183293;23;20009;-73
2022/06/07 00:21:29;;;;;;;3.45;1.10;;;;;;;16.73;82.83;100414.97;6109300;23;20092;-73
2022/06/07 00:23:55;;;;;;;3.70;1.00;;;;;;;16.64;82.61;100405.78;6182990;23;20009;-73
2022/06/07 00:26:21;;;;;;;4.80;0.75;;;;;;;16.62;82.62;100407.28;6160204;23;20006;-73
2022/06/07 00:28:46;;;;;;;4.30;1.00;;;;;;;16.57;82.43;100407.47;6128729;23;20021;-73
2022/06/07 00:31:13;;;;;;;3.88;0.93;;;;;;;16.48;82.11;100404.69;6129349;23;20009;-74
2022/06/07 00:33:38;;;;;;;1.50;0.80;;;;;;;16.46;82.62;100407.00;6129399;23;20018;-73
2022/06/07 00:36:04;;;;;;;2.17;0.73;;;;;;;16.40;81.95;100413.97;6178529;23;20057;-73
2022/06/07 00:38:30;;;;;;;2.63;0.90;;;;;;;16.34;82.19;100412.50;6178250;23;20089;-73
2022/06/07 00:40:56;;;;;;;6.40;1.15;;;;;;;16.27;82.38;100401.81;6130524;23;20013;-73
2022/06/07 00:43:23;;;;;;;6.55;0.90;;;;;;;16.21;82.05;100403.13;6130290;23;20399;-73
2022/06/07 00:45:49;;;;;;;4.45;1.08;;;;;;;16.13;82.24;100404.84;6130714;23;20397;-73
2022/06/07 00:48:15;;;;;;;4.97;1.20;;;;;;;16.08;82.30;100411.44;6130519;23;20014;-73
2022/06/07 00:50:59;;;;;;;3.13;0.70;;;;;;;16.02;81.90;100406.34;6178356;23;20005;-73
2022/06/07 00:53:24;;;;;;;3.95;1.10;;;;;;;15.98;82.41;100413.75;6153389;23;20002;-73
2022/06/07 00:55:50;;;;;;;4.22;0.93;;;;;;;15.95;82.56;100406.03;6130455;23;20009;-73
2022/06/07 00:58:16;;;;;;;3.67;1.15;;;;;;;15.92;82.43;100415.09;6130178;23;20064;-74
2022/06/07 01:00:41;;;;;;;3.97;1.00;;;;;;;15.88;82.68;100402.91;6130434;23;20016;-73
2022/06/07 01:03:07;;;;;;;3.03;1.00;;;;;;;15.80;82.81;100405.41;6130319;23;20134;-74
2022/06/07 01:05:32;;;;;;;3.28;1.00;;;;;;;15.77;83.29;100406.06;6129923;23;20076;-73
2022/06/07 01:10:45;;;;;;;3.35;1.27;;;;;;;15.68;83.05;100408.03;6130149;23;20359;-74
2022/06/07 01:13:15;;;;;;;2.40;0.98;;;;;;;15.65;83.65;100411.47;6177834;23;20047;-73
2022/06/07 01:15:45;;;;;;;1.88;0.98;;;;;;;15.61;83.12;100402.09;6178138;23;20006;-73
2022/06/07 01:18:11;;;;;;;1.92;0.90;;;;;;;15.58;83.24;100400.78;6130275;23;20028;-73
2022/06/07 01:20:37;;;;;;;1.75;0.90;;;;;;;15.58;83.42;100397.97;6130158;23;20005;-73
2022/06/07 01:23:03;;;;;;;3.47;0.85;;;;;;;15.54;84.08;100407.34;6130217;23;20009;-73
2022/06/07 01:25:28;;;;;;;2.70;0.80;;;;;;;15.54;84.18;100412.94;6130048;23;20016;-73
2022/06/07 01:27:54;;;;;;;4.38;1.08;;;;;;;15.51;83.78;100400.44;6130037;23;20014;-73
2022/06/07 01:30:20;;;;;;;1.50;0.80;;;;;;;15.50;83.72;100404.41;6127996;23;20014;-73
2022/06/07 01:32:45;;;;;;;2.88;0.82;;;;;;;15.45;83.82;100398.97;6130271;23;20002;-73
2022/06/07 01:35:11;;;;;;;5.45;1.20;;;;;;;15.45;83.86;100407.34;6177865;23;20502;-73
2022/06/07 01:37:36;;;;;;;1.95;0.90;;;;;;;15.42;84.18;100406.03;6130023;23;20006;-73
2022/06/07 01:42:48;;;;;;;4.15;1.10;;;;;;;15.36;83.56;100407.38;6129820;23;20017;-73
2022/06/07 01:45:13;;;;;;;3.17;0.80;;;;;;;15.39;84.66;100415.09;6129711;23;20006;-73
2022/06/07 01:47:39;;;;;;;6.43;1.23;;;;;;;15.35;83.96;100405.72;6129941;23;20006;-73
2022/06/07 01:50:05;;;;;;;3.55;0.90;;;;;;;15.36;84.18;100409.34;6129657;23;20009;-73
2022/06/07 01:52:32;;;;;;;3.50;1.23;;;;;;;15.35;84.47;100407.69;6129824;23;20002;-73
2022/06/07 01:54:57;;;;;;;3.80;1.00;;;;;;;15.32;84.66;100400.78;6130020;23;20002;-73
2022/06/07 01:57:23;;;;;;;4.65;0.88;;;;;;;15.32;84.75;100405.53;6129955;23;20017;-73
2022/06/07 01:59:49;;;;;;;3.53;1.33;;;;;;;15.28;84.96;100413.78;6129549;23;20017;-73
2022/06/07 02:02:14;;;;;;;3.63;1.30;;;;;;;15.26;84.88;100410.47;6128424;23;20042;-73
2022/06/07 02:04:40;;;;;;;2.05;1.10;;;;;;;15.27;85.25;100403.75;6103636;23;20065;-73
2022/06/07 02:07:06;;;;;;;5.80;1.23;;;;;;;15.26;85.14;100404.88;6129884;23;20424;-73
2022/06/07 02:09:31;;;;;;;3.88;1.30;;;;;;;15.29;85.34;100401.41;6129843;23;20555;-73
2022/06/07 02:11:57;;;;;;;4.60;1.10;;;;;;;15.26;85.46;100401.25;6129770;23;20081;-73
2022/06/07 02:14:23;;;;;;;3.90;1.00;;;;;;;15.29;86.13;100403.41;6127957;23;20006;-73
2022/06/07 02:16:49;;;;;;;4.65;1.25;;;;;;;15.27;86.56;100398.16;6129782;23;20017;-73
2022/06/07 02:19:14;;;;;;;2.70;1.30;;;;;;;15.30;87.51;100397.50;6129679;23;20014;-73
2022/06/07 02:21:40;;;;;;;5.60;1.02;;;;;;;15.31;86.51;100393.53;6176965;23;20010;-73
2022/06/07 02:24:06;;;;;;;4.82;1.08;;;;;;;15.33;86.89;100388.44;6128299;23;20009;-73
2022/06/07 02:26:31;;;;;;;7.00;1.63;;;;;;;15.32;86.93;100389.59;6128063;23;20012;-73
2022/06/07 02:28:58;;;;;;;5.65;1.27;;;;;;;15.33;87.48;100385.63;6137446;23;20021;-73
2022/06/07 02:31:24;;;;;;;4.25;1.55;;;;;;;15.32;86.07;100384.00;6157573;23;20077;-73
2022/06/07 02:33:51;;;;;;;4.15;0.98;;;;;;;15.33;86.75;100387.63;6132766;23;20017;-73
2022/06/07 02:36:17;;;;;;;4.43;1.05;;;;;;;15.35;87.47;100382.50;6158978;23;20009;-73
2022/06/07 02:38:43;;;;;;;5.38;1.42;;;;;;;15.33;86.84;100380.03;6159148;23;20505;-73
2022/06/07 02:41:09;;;;;;;5.63;1.42;;;;;;;15.34;87.77;100389.25;6132957;23;20072;-73
2022/06/07 02:43:35;;;;;;;4.10;1.20;;;;;;;15.35;87.88;100386.13;6132856;23;20005;-73
2022/06/07 02:46:00;;;;;;;3.88;1.13;;;;;;;15.35;87.68;100385.28;6158779;23;20032;-73
2022/06/07 02:48:26;;;;;;;3.53;1.00;;;;;;;15.34;87.43;100387.28;6181928;23;20010;-73
2022/06/07 02:50:52;;;;;;;2.13;1.17;;;;;;;15.33;86.58;100380.03;6132811;23;20009;-73
2022/06/07 02:53:18;;;;;;;3.75;1.20;;;;;;;15.33;87.14;100388.44;6159123;23;20009;-73
2022/06/07 02:55:44;;;;;;;6.13;1.20;;;;;;;15.36;86.51;100381.38;6158863;23;20347;-73
2022/06/07 02:58:09;;;;;;;4.20;1.00;;;;;;;15.31;85.44;100384.31;6158690;23;20013;-73
2022/06/07 03:00:35;;;;;;;4.55;1.40;;;;;;;15.32;85.71;100386.81;6159053;23;20033;-73
2022/06/07 03:03:00;;;;;;;3.67;1.23;;;;;;;15.28;85.59;100383.00;6158935;23;20009;-73
2022/06/07 03:05:26;;;;;;;5.82;1.48;;;;;;;15.27;86.29;100386.16;6158681;23;20064;-73
2022/06/07 03:07:51;;;;;;;5.90;1.40;;;;;;;15.25;86.76;100391.25;6158940;23;20070;-73
2022/06/07 03:10:17;;;;;;;4.32;1.10;;;;;;;15.22;85.95;100389.91;6158792;23;20021;-73
2022/06/07 03:12:43;;;;;;;5.40;1.05;;;;;;;15.23;86.44;100391.56;6158867;23;20010;-73
2022/06/07 03:15:09;;;;;;;3.20;1.02;;;;;;;15.23;86.55;100391.56;6158744;23;20505;-73
2022/06/07 03:17:35;;;;;;;4.82;1.30;;;;;;;15.22;86.85;100384.31;6132750;23;20047;-73
2022/06/07 03:20:00;;;;;;;5.63;1.38;;;;;;;15.23;86.13;100382.34;6158634;23;20096;-73
2022/06/07 03:22:26;;;;;;;6.63;1.42;;;;;;;15.18;86.89;100388.91;6182071;23;20002;-73
2022/06/07 03:24:51;;;;;;;7.57;1.60;;;;;;;15.18;86.14;100384.16;6158847;23;20006;-73
2022/06/07 03:27:17;;;;;;;4.93;1.30;;;;;;;15.17;86.17;100378.88;6158893;23;20435;-73
2022/06/07 03:29:42;;;;;;;3.50;1.38;;;;;;;15.17;86.55;100382.50;6127380;23;20068;-73
2022/06/07 03:32:08;;;;;;;4.38;1.17;;;;;;;15.13;86.46;100387.13;6127924;23;20014;-73
2022/06/07 03:34:34;;;;;;;6.07;1.33;;;;;;;15.15;86.50;100386.78;6177162;23;20041;-73
2022/06/07 03:37:00;;;;;;;5.72;1.58;;;;;;;15.15;87.22;100389.56;6176775;23;20010;-73
2022/06/07 03:39:26;;;;;;;6.95;1.48;;;;;;;15.17;86.40;100395.66;6152529;23;20360;-73
2022/06/07 03:41:51;;;;;;;4.10;1.40;;;;;;;15.14;86.85;100385.97;6129502;23;20006;-73
2022/06/07 03:44:17;;;;;;;5.40;1.45;;;;;;;15.15;86.75;100390.38;6128950;23;20006;-73
2022/06/07 03:46:43;;;;;;;6.53;1.52;;;;;;;15.15;86.54;100401.56;6129227;23;20313;-73
2022/06/07 03:49:08;;;;;;;5.55;1.30;;;;;;;15.17;87.50;100404.06;6129212;23;20064;-73
2022/06/07 03:51:34;;;;;;;6.95;1.40;;;;;;;15.17;88.14;100398.47;6129238;23;20006;-73
2022/06/07 03:54:00;;;;;;;4.53;1.10;;;;;;;15.16;88.65;100403.25;6127889;23;20006;-73
2022/06/07 03:56:25;;;;;;;8.63;1.63;;;;;;;15.18;89.77;100408.50;6129198;23;20006;-73
2022/06/07 03:58:51;;;;;;;6.18;2.17;;;;;;;15.16;89.83;100406.03;6178077;23;20010;-73
2022/06/07 04:01:18;;;;;;;6.90;1.73;;;;;;;15.16;89.52;100408.03;6130930;23;20006;-73
2022/06/07 04:03:44;;;;;;;5.55;1.50;;;;;;;15.16;89.67;100408.03;6129468;23;20002;-73
2022/06/07 04:06:40;;;;;;;7.28;1.73;;;;;;;15.17;89.82;100409.66;6130804;23;20080;-73
2022/06/07 04:09:05;;;;;;;2.22;1.10;;;;;;;15.17;89.64;100404.06;6130565;23;20092;-73
2022/06/07 04:11:31;;;;;;;9.32;1.90;;;;;;;15.16;91.66;100405.22;6130715;23;20006;-73
2022/06/07 04:13:57;;;;;;;6.20;1.63;;;;;;;15.14;88.63;100399.94;6130489;23;20017;-73
2022/06/07 04:16:25;;;;;;;5.97;1.73;;;;;;;15.16;88.96;100408.03;6131164;23;20016;-73
2022/06/07 04:18:50;;;;;;;5.25;1.45;;;;;;;15.20;88.06;100397.81;6178552;23;20085;-73
2022/06/07 04:21:16;;;;;;;6.65;1.65;;;;;;;15.20;88.79;100406.19;6130700;23;20013;-73
2022/06/07 04:23:42;;;;;;;5.38;1.55;;;;;;;15.17;88.72;100404.06;6130102;23;20450;-73
2022/06/07 04:26:08;;;;;;;7.75;1.75;;;;;;;15.19;88.63;100404.56;6130679;23;20066;-73
2022/06/07 04:28:34;;;;;;;5.13;1.60;;;;;;;15.18;89.64;100403.75;6133907;23;20076;-73
2022/06/07 04:30:59;;;;;;;8.50;1.80;;;;;;;15.21;88.73;100396.69;6160252;23;20005;-73
2022/06/07 04:33:25;;;;;;;9.52;1.85;;;;;;;15.23;88.36;100413.13;6160049;23;20064;-73
2022/06/07 04:35:50;;;;;;;8.45;1.73;;;;;;;15.22;88.14;100411.47;6160004;23;20439;-73
2022/06/07 04:38:16;;;;;;;9.05;1.80;;;;;;;15.21;88.92;100405.06;6160148;23;20012;-73
2022/06/07 04:40:42;;;;;;;7.00;1.55;;;;;;;15.24;89.62;100395.16;6158521;23;20009;-73
2022/06/07 04:43:09;;;;;;;5.15;1.38;;;;;;;15.24;88.48;100401.59;6159706;23;20017;-73
2022/06/07 04:45:35;;;;;;;5.75;1.60;;;;;;;15.24;89.25;100403.56;6160251;23;20005;-73
2022/06/07 04:48:00;;;;;;;7.00;1.77;;;;;;;15.27;88.17;100406.53;6133893;23;20005;-73
2022/06/07 04:50:26;;;;;;;6.03;1.67;;;;;;;15.25;88.37;100406.03;6109700;23;20021;-73
2022/06/07 04:52:51;;;;;;;6.13;1.30;;;;;;;15.25;88.28;100417.22;6133970;23;20021;-73
2022/06/07 04:55:17;;;;;;;7.82;1.70;;;;;;;15.26;88.79;100420.84;6160040;23;20447;-73
2022/06/07 04:57:43;;;;;;;6.43;1.50;;;;;;;15.26;88.83;100423.66;6159805;23;20060;-73
2022/06/07 05:00:14;;;;;;;6.15;1.45;;;;;;;15.29;89.79;100426.59;6133663;23;20107;-73
2022/06/07 05:02:40;;;;;;;7.82;1.60;;;;;;;15.27;88.96;100426.13;6159828;23;20096;-73
2022/06/07 05:05:06;;;;;;;7.95;1.70;;;;;;;15.28;89.52;100422.16;6109374;23;20009;-73
2022/06/07 05:07:32;;;;;;;10.65;1.65;;;;;;;15.31;88.97;100431.88;6159928;23;20005;-73
2022/06/07 05:09:58;;;;;;;4.03;1.55;;;;;;;15.33;90.59;100436.00;6133632;23;20064;-73
2022/06/07 05:12:23;;;;;;;5.60;1.77;;;;;;;15.33;91.20;100438.81;6159758;23;20024;-73
2022/06/07 05:14:49;;;;;;;7.28;1.90;;;;;;;15.34;90.98;100434.03;6159396;23;20021;-73
2022/06/07 05:17:15;;;;;;;8.77;2.03;;;;;;;15.34;90.22;100434.84;6159832;23;20012;-71
2022/06/07 05:19:41;;;;;;;5.63;1.63;;;;;;;15.35;90.45;100439.31;6159638;23;20333;-69
2022/06/07 05:22:06;;;;;;;6.93;1.15;;;;;;;15.36;89.29;100435.34;6159682;23;20438;-69
2022/06/07 05:24:32;;;;;;;8.52;1.73;;;;;;;15.38;90.88;100438.66;6159611;23;20005;-70
2022/06/07 05:26:59;;;;;;;5.05;1.50;;;;;;;15.40;91.66;100447.50;6159737;23;20009;-69
2022/06/07 05:29:26;;;;;;;4.80;1.52;;;;;;;15.44;92.09;100453.31;6133208;23;20025;-73
2022/06/07 05:31:52;;;;;;;6.82;2.22;;;;;;;15.46;94.03;100452.97;6159649;23;20006;-73
2022/06/07 05:34:17;;;;;;;4.95;1.83;;;;;;;15.49;92.10;100449.50;6159827;23;20304;-73
2022/06/07 05:36:42;;;;;;;4.88;1.63;;;;;;;15.48;90.61;100459.06;6109098;23;20018;-73
2022/06/07 05:39:21;;;;;;;6.75;1.60;;;;;;;15.52;90.39;100454.47;6133811;23;20403;-73
2022/06/07 05:41:48;;;;;;;8.68;1.92;;;;;;;15.54;90.63;100452.13;6134967;23;20028;-73
2022/06/07 05:44:13;;;;;;;7.53;1.67;;;;;;;15.58;91.36;100444.75;6133371;23;20005;-71
2022/06/07 05:46:40;;;;;;;9.45;1.55;;;;;;;15.58;92.63;100448.38;6159550;23;20009;-71
2022/06/07 05:49:05;;;;;;;6.75;1.83;;;;;;;15.61;92.42;100453.28;6133366;23;20013;-71
2022/06/07 05:51:30;;;;;;;8.38;1.77;;;;;;;15.63;93.12;100456.59;6159412;23;20427;-71
2022/06/07 05:53:56;;;;;;;9.13;1.67;;;;;;;15.67;92.85;100451.16;6133225;23;20060;-71
2022/06/07 05:56:21;;;;;;;6.88;1.52;;;;;;;15.71;92.27;100440.16;6109072;23;20012;-71
2022/06/07 05:58:48;;;;;;;8.15;1.60;;;;;;;15.72;91.19;100447.41;6108586;23;20009;-71
2022/06/07 06:01:17;;;;;;;8.82;1.75;;;;;;;15.76;91.74;100439.97;6061052;23;20024;-71
2022/06/07 06:03:42;;;;;;;9.13;1.73;;;;;;;15.77;90.76;100445.25;6085616;23;20593;-71
2022/06/07 06:06:11;;;;;;;5.85;1.70;;;;;;;15.84;91.66;100453.16;6085133;23;20103;-71
2022/06/07 06:11:23;;;;;;;6.03;1.60;;;;;;;15.94;92.63;100472.44;6116785;23;20005;-71
2022/06/07 06:13:49;;;;;;;8.65;2.28;;;;;;;15.99;94.13;100468.59;6108621;23;20474;-71
2022/06/07 06:16:18;;;;;;;7.47;1.63;;;;;;;16.02;93.18;100470.78;6133103;23;20035;-71
2022/06/07 06:18:45;;;;;;;7.30;1.67;;;;;;;16.05;95.68;100476.53;6084996;23;20354;-70
2022/06/07 06:21:10;;;;;;;9.30;2.00;;;;;;;16.09;94.13;100474.69;6108261;23;20012;-70
2022/06/07 06:23:36;;;;;;;6.80;1.73;;;;;;;16.15;95.48;100478.16;6157103;23;20427;-70
2022/06/07 06:26:06;;;;;;;6.00;1.90;;;;;;;16.21;94.57;100478.78;6108725;23;20016;-70
2022/06/07 06:28:32;;;;;;;8.32;1.88;;;;;;;16.25;95.57;100480.59;6084133;23;20080;-70
2022/06/07 06:31:01;;;;;;;6.20;1.80;;;;;;;16.30;96.86;100488.84;6108674;23;20063;-70
2022/06/07 06:33:26;;;;;;;10.07;1.73;;;;;;;16.36;95.88;100483.88;6108759;23;20005;-70
2022/06/07 06:35:53;;;;;;;5.07;1.50;;;;;;;16.43;93.61;100494.56;6108596;23;20021;-70
2022/06/07 06:38:19;;;;;;;6.45;1.75;;;;;;;16.47;95.26;100485.16;6084874;23;20151;-70
2022/06/07 06:40:45;;;;;;;7.78;1.52;;;;;;;16.57;95.02;100491.56;6133488;23;20060;-70
2022/06/07 06:43:14;;;;;;;6.38;1.77;;;;;;;16.63;93.72;100487.41;6132708;23;20010;-70
2022/06/07 06:45:40;;;;;;;8.45;1.73;;;;;;;16.67;93.97;100494.81;6109195;23;20324;-70
2022/06/07 06:48:06;;;;;;;7.72;1.60;;;;;;;16.71;93.87;100498.59;6108138;23;20044;-70
2022/06/07 06:50:33;;;;;;;6.90;1.80;;;;;;;16.77;92.99;100498.44;6132946;23;20013;-70
2022/06/07 06:52:58;;;;;;;8.35;1.90;;;;;;;16.82;93.97;100496.28;6108699;23;20271;-70
2022/06/07 06:55:24;;;;;;;8.10;1.50;;;;;;;16.88;92.89;100500.56;6108671;23;20016;-70
2022/06/07 06:57:49;;;;;;;5.35;1.70;;;;;;;16.96;93.95;100496.03;6108297;23;20009;-70
2022/06/07 07:00:15;;;;;;;7.88;1.73;;;;;;;17.00;93.44;100497.03;6084730;23;20010;-70
2022/06/07 07:02:41;;;;;;;9.23;2.10;;;;;;;17.06;94.38;100494.84;6084406;23;20093;-70
2022/06/07 07:05:07;;;;;;;4.93;1.50;;;;;;;17.12;92.79;100494.31;6132915;23;20016;-70
2022/06/07 07:07:32;;;;;;;8.05;1.88;;;;;;;17.17;93.95;100496.13;6108828;23;20009;-70
2022/06/07 07:09:58;;;;;;;10.27;2.25;;;;;;;17.20;92.77;100499.06;6108642;23;20010;-69
2022/06/07 07:12:23;;;;;;;7.22;1.88;;;;;;;17.20;94.88;100498.25;6084447;23;20006;-70
2022/06/07 07:14:49;;;;;;;5.65;1.50;;;;;;;17.23;93.05;100499.53;6108402;23;20532;-70
2022/06/07 07:17:14;;;;;;;4.68;1.75;;;;;;;17.21;93.67;100485.84;6132864;23;20013;-70
2022/06/07 07:19:40;;;;;;;5.97;1.67;;;;;;;17.23;93.45;100488.31;6131987;23;20029;-70
2022/06/07 07:22:05;;;;;;;9.25;2.00;;;;;;;17.24;92.76;100476.75;6108424;23;20069;-70
2022/06/07 07:24:32;;;;;;;7.65;1.65;;;;;;;17.26;92.65;100482.03;6108553;23;20020;-70
2022/06/07 07:26:58;;;;;;;7.57;1.70;;;;;;;17.27;92.71;100478.03;6133371;23;20005;-70
2022/06/07 07:29:24;;;;;;;7.20;1.48;;;;;;;17.30;92.99;100489.44;6103153;23;20021;-70
2022/06/07 07:31:49;;;;;;;6.78;1.95;;;;;;;17.34;94.50;100484.78;6127971;23;20021;-70
2022/06/07 07:34:15;;;;;;;8.80;1.80;;;;;;;17.40;93.45;100482.59;6129603;23;20085;-70
2022/06/07 07:36:43;;;;;;;6.63;1.63;;;;;;;17.49;92.17;100483.34;6154180;23;20085;-69
2022/06/07 07:39:08;;;;;;;7.82;1.48;;;;;;;17.65;94.60;100494.78;6129540;23;20427;-70
2022/06/07 07:41:35;;;;;;;6.13;1.23;;;;;;;17.79;93.09;100489.75;6129583;23;20029;-70
2022/06/07 07:44:02;;;;;;;5.07;1.38;;;;;;;17.96;93.98;100480.34;6129154;23;20013;-70
2022/06/07 07:46:30;;;;;;;4.13;1.45;;;;;;;18.14;90.76;100486.63;6154535;23;20020;-70
2022/06/07 07:48:56;;;;;;;4.07;1.20;;;;;;;18.35;91.18;100488.56;6105005;23;20044;-70
2022/06/07 07:51:25;;;;;;;4.25;1.10;;;;;;;18.56;89.46;100497.75;6129734;23;20328;-69
2022/06/07 07:53:51;;;;;;;8.07;1.42;;;;;;;18.80;86.28;100488.56;6154199;23;20020;-70
2022/06/07 07:56:17;;;;;;;10.25;1.40;;;;;;;19.07;89.42;100487.06;6153237;23;20014;-69
2022/06/07 07:58:42;;;;;;;5.28;1.45;;;;;;;19.36;83.19;100487.97;6129220;23;20059;-70
2022/06/07 08:01:13;;;;;;;6.15;1.75;;;;;;;19.64;84.51;100476.78;6154080;23;20013;-70
2022/06/07 08:03:39;;;;;;;6.07;1.27;;;;;;;19.93;82.95;100483.28;6153752;23;20010;-70
2022/06/07 08:06:09;;;;;;;7.82;1.40;;;;;;;20.19;81.60;100480.81;6153830;23;20041;-70
2022/06/07 08:08:35;;;;;;;10.57;1.40;;;;;;;20.43;81.51;100490.31;6153512;23;20439;-70
2022/06/07 08:11:00;;;;;;;6.53;1.38;;;;;;;20.59;80.22;100482.75;6104704;23;20010;-70
2022/06/07 08:13:26;;;;;;;6.68;1.40;;;;;;;20.82;79.38;100484.94;6129030;23;20002;-70
2022/06/07 08:15:52;;;;;;;9.70;1.90;;;;;;;20.96;78.83;100479.63;6153982;23;20069;-70
2022/06/07 08:18:17;;;;;;;7.32;1.30;;;;;;;21.09;77.76;100478.34;6178665;23;20010;-71
2022/06/07 08:20:43;;;;;;;8.18;1.50;;;;;;;21.25;77.45;100477.50;6104685;23;20081;-71
2022/06/07 08:23:10;;;;;;;5.80;1.42;;;;;;;21.35;76.70;100477.75;6129485;23;20014;-70
2022/06/07 08:25:38;;;;;;;7.63;1.60;;;;;;;21.49;76.98;100480.13;6129619;23;20327;-71
2022/06/07 08:28:03;;;;;;;7.75;1.40;;;;;;;21.57;74.82;100483.94;6129078;23;20010;-71
2022/06/07 08:30:29;;;;;;;9.85;1.45;;;;;;;21.66;73.98;100478.06;6128986;23;20025;-70
2022/06/07 08:32:55;;;;;;;7.15;1.60;;;;;;;21.72;73.16;100474.56;6104794;23;20436;-70
2022/06/07 08:38:05;;;;;;;8.63;1.48;;;;;;;21.98;73.17;100473.91;6129153;23;20104;-70
2022/06/07 08:40:34;;;;;;;6.28;1.60;;;;;;;22.08;72.59;100467.66;6105015;23;20045;-70
2022/06/07 08:43:11;;;;;;;6.78;1.70;;;;;;;22.23;72.07;100470.78;6152852;23;20018;-70
2022/06/07 08:45:38;;;;;;;10.73;1.55;;;;;;;22.38;71.21;100469.88;6126737;23;20042;-71
2022/06/07 08:48:06;;;;;;;8.27;1.45;;;;;;;22.51;69.89;100465.69;6129137;23;20006;-71
2022/06/07 08:50:40;;;;;;;7.20;1.48;;;;;;;22.64;70.85;100471.97;6153334;23;20458;-70
2022/06/07 08:53:21;;;;;;;11.98;1.60;;;;;;;22.81;70.18;100461.31;6129288;23;20010;-70
2022/06/07 08:55:46;;;;;;;8.00;1.42;;;;;;;22.92;66.33;100465.97;6152924;23;20210;-70
2022/06/07 08:58:30;;;;;;;8.30;1.45;;;;;;;23.03;64.94;100469.00;6130241;23;20085;-70
2022/06/07 09:00:58;;;;;;;8.18;1.52;;;;;;;23.14;65.36;100469.19;6128286;23;20033;-70
2022/06/07 09:03:40;;;;;;;9.05;1.42;;;;;;;23.22;64.86;100468.09;6129010;23;20010;-70
2022/06/07 09:06:18;;;;;;;10.95;1.52;;;;;;;23.30;64.78;100475.50;6127946;23;20064;-70
2022/06/07 09:08:46;;;;;;;9.68;1.70;;;;;;;23.36;65.05;100456.97;6127244;23;20013;-70
2022/06/07 09:14:47;;;;;;;7.85;1.27;;;;;;;23.54;64.50;100464.91;6128794;23;20375;-70
2022/06/07 09:17:40;;;;;;;7.53;1.02;;;;;;;23.64;63.69;100469.91;6130309;23;20080;-70
2022/06/07 09:20:11;;;;;;;7.28;1.35;;;;;;;23.67;61.87;100469.16;6128067;23;20017;-70
2022/06/07 09:22:57;;;;;;;6.40;1.38;;;;;;;23.75;62.39;100468.06;6128777;23;20005;-70
2022/06/07 09:25:34;;;;;;;7.45;1.33;;;;;;;23.71;61.72;100472.91;6125622;23;20096;-70
2022/06/07 09:27:59;;;;;;;5.75;1.35;;;;;;;23.72;61.54;100477.34;6127747;23;20024;-70
2022/06/07 09:30:33;;;;;;;6.93;1.30;;;;;;;23.70;61.40;100465.53;6128097;23;20105;-70
2022/06/07 09:33:06;;;;;;;5.30;1.00;;;;;;;23.62;62.04;100469.47;6151888;23;20028;-71
2022/06/07 09:35:39;;;;;;;3.95;1.00;;;;;;;23.58;62.53;100462.97;6127609;23;20033;-71
2022/06/07 09:38:27;;;;;;;7.95;1.30;;;;;;;23.52;61.98;100453.97;6152497;23;20045;-71
2022/06/07 09:40:52;;;;;;;7.03;1.30;;;;;;;23.50;61.68;100453.53;6150585;23;20010;-70
2022/06/07 09:43:19;;;;;;;4.45;0.90;;;;;;;23.49;61.21;100451.09;6128220;23;20016;-70
2022/06/07 09:45:45;;;;;;;5.85;0.75;;;;;;;23.53;61.93;100446.28;6128784;23;20009;-70
2022/06/07 09:48:46;;;;;;;4.93;0.88;;;;;;;23.57;61.16;100445.13;6127964;23;20020;-70
2022/06/07 09:51:21;;;;;;;3.35;0.75;;;;;;;23.64;59.94;100444.41;6177914;23;20009;-70
2022/06/07 09:54:17;;;;;;;8.30;1.02;;;;;;;23.63;58.81;100442.78;6127728;23;20013;-70
2022/06/07 09:56:54;;;;;;;6.82;1.02;;;;;;;23.67;59.53;100440.78;6105945;23;20021;-70
2022/06/07 09:59:38;;;;;;;8.57;1.75;;;;;;;23.65;58.72;100446.03;6126365;23;20018;-70
2022/06/07 10:02:21;;;;;;;8.18;1.40;;;;;;;23.68;58.92;100442.44;6103676;23;20461;-71
2022/06/07 10:05:06;;;;;;;;;;;;;;;23.70;59.00;100436.38;6150768;23;20436;-70
2022/06/07 10:07:50;;;;;;;4.65;0.98;;;;;;;23.73;59.57;100441.31;6129287;23;19911;-70
2022/06/07 10:11:01;;;;;;;6.07;1.27;;;;;;;23.75;59.51;100434.06;6153290;23;20009;-70
2022/06/07 10:13:50;;;;;;;6.53;1.20;;;;;;;23.81;60.11;100435.34;6126553;23;20006;-70
2022/06/07 10:16:24;;;;;;;5.43;1.30;;;;;;;23.94;59.95;100424.56;6170526;23;20010;-71
2022/06/07 10:19:11;;;;;;;4.57;0.90;;;;;;;24.09;59.20;100434.03;6128147;23;20327;-71
2022/06/07 10:21:42;;;;;;;12.02;1.58;;;;;;;24.26;58.60;100427.75;6129657;23;20420;-70
2022/06/07 10:24:21;;;;;;;8.45;1.27;;;;;;;24.39;58.52;100416.94;6127601;23;20037;-70
2022/06/07 10:27:12;;;;;;;6.22;1.02;;;;;;;24.59;57.31;100419.56;6129442;23;20010;-70
2022/06/07 10:30:03;;;;;;;6.40;1.23;;;;;;;24.70;56.74;100418.47;6144938;23;20342;-70
2022/06/07 10:32:49;;;;;;;5.03;1.13;;;;;;;24.83;56.00;100421.00;6159253;23;20076;-70
2022/06/07 10:35:15;;;;;;;8.63;1.30;;;;;;;24.92;56.21;100416.59;6134120;23;20041;-70
2022/06/07 10:38:09;;;;;;;6.00;1.02;;;;;;;25.01;55.66;100416.25;6159190;23;20009;-70
2022/06/07 10:40:38;;;;;;;8.45;1.20;;;;;;;25.04;55.81;100409.78;6158765;23;20016;-70
2022/06/07 10:43:25;;;;;;;6.15;0.90;;;;;;;25.02;55.04;100415.06;6084315;23;20010;-70
2022/06/07 10:45:54;;;;;;;6.72;0.88;;;;;;;24.96;54.96;100416.63;6157312;23;20096;-70
2022/06/07 10:48:33;;;;;;;7.45;1.40;;;;;;;24.91;56.26;100405.66;6109279;23;20013;-70
2022/06/07 10:54:04;;;;;;;6.75;1.23;;;;;;;24.79;57.44;100395.41;6136966;23;20028;-70
2022/06/07 10:56:31;;;;;;;8.20;1.25;;;;;;;24.82;57.27;100391.78;6085087;23;20048;-70
2022/06/07 10:58:57;;;;;;;6.57;1.17;;;;;;;24.90;57.67;100395.47;6107829;23;20009;-70
2022/06/07 11:01:40;;;;;;;5.97;1.05;;;;;;;24.98;57.90;100394.31;6108336;23;20395;-70
2022/06/07 11:10:20;;;;;;;8.77;1.15;;;;;;;25.46;56.19;100376.34;6118789;23;20006;-70
2022/06/07 11:13:16;;;;;;;9.77;1.48;;;;;;;25.65;55.10;100378.88;6111176;23;20005;-70
2022/06/07 11:16:17;;;;;;;7.47;1.30;;;;;;;25.79;53.99;100386.66;6161239;23;20032;-70
2022/06/07 11:18:43;;;;;;;6.18;1.48;;;;;;;25.92;53.19;100381.47;6070102;23;20014;-70
2022/06/07 11:21:21;;;;;;;5.68;1.20;;;;;;;26.01;52.99;100385.53;6046481;23;20025;-70
2022/06/07 11:24:07;;;;;;;5.47;1.02;;;;;;;26.10;53.20;100384.34;6048378;23;20018;-70
2022/06/07 11:26:57;;;;;;;7.82;1.17;;;;;;;26.12;52.25;100377.03;6011633;23;20011;-69
2022/06/07 11:29:29;;;;;;;6.28;1.17;;;;;;;26.12;51.33;100374.19;6069249;23;20110;-70
2022/06/07 11:31:55;;;;;;;9.00;1.30;;;;;;;26.15;51.56;100386.78;6047261;23;20010;-70
2022/06/07 11:34:29;;;;;;;4.95;1.00;;;;;;;26.12;51.36;100373.38;6046394;23;20051;-70
2022/06/07 11:37:10;;;;;;;5.05;1.35;;;;;;;26.05;50.83;100374.97;6023043;23;20138;-69
2022/06/07 11:39:38;;;;;;;8.30;1.15;;;;;;;25.98;51.36;100366.41;6070449;23;20019;-70
2022/06/07 11:42:35;;;;;;;9.65;1.30;;;;;;;25.88;51.12;100364.34;6070437;23;20011;-70
2022/06/07 11:45:07;;;;;;;8.43;1.40;;;;;;;25.81;50.09;100375.69;6046611;23;20015;-70
2022/06/07 11:47:36;;;;;;;9.05;1.40;;;;;;;25.68;50.72;100383.75;6070171;23;20011;-70
2022/06/07 11:50:10;;;;;;;9.77;1.70;;;;;;;25.55;51.48;100380.47;6022501;23;20014;-70
2022/06/07 11:52:51;;;;;;;7.82;1.33;;;;;;;25.40;51.65;100379.59;6074950;23;20006;-70
2022/06/07 11:55:17;;;;;;;10.25;1.83;;;;;;;25.24;52.50;100375.44;6126889;23;20033;-70
2022/06/07 11:58:00;;;;;;;9.93;1.77;;;;;;;25.11;53.80;100372.91;6104494;23;20010;-70